sensor_id;sensor_type;location;lat;lon;timestamp;P1;durP1;ratioP1;P2;durP2;ratioP2
10645;SDS011;5371;49.782;9.932;2024-02-21T00:00:51;13.23;;;3.83;;
10645;SDS011;5371;49.782;9.932;2024-02-21T00:03:18;12.20;;;3.93;;
10645;SDS011;5371;49.782;9.932;2024-02-21T00:05:45;11.67;;;4.60;;
10645;SDS011;5371;49.782;9.932;2024-02-21T00:08:12;11.23;;;3.27;;
10645;SDS011;5371;49.782;9.932;2024-02-21T00:10:40;11.40;;;4.03;;
10645;SDS011;5371;49.782;9.932;2024-02-21T00:13:07;11.00;;;4.13;;
10645;SDS011;5371;49.782;9.932;2024-02-21T00:15:34;16.60;;;3.73;;
10645;SDS011;5371;49.782;9.932;2024-02-21T00:18:01;17.53;;;4.23;;
10645;SDS011;5371;49.782;9.932;2024-02-21T00:20:28;11.83;;;4.23;;
10645;SDS011;5371;49.782;9.932;2024-02-21T00:22:55;14.93;;;4.03;;
10645;SDS011;5371;49.782;9.932;2024-02-21T00:25:22;13.10;;;4.23;;
10645;SDS011;5371;49.782;9.932;2024-02-21T00:27:50;13.07;;;3.90;;
10645;SDS011;5371;49.782;9.932;2024-02-21T00:30:19;14.67;;;4.33;;
10645;SDS011;5371;49.782;9.932;2024-02-21T00:32:46;16.67;;;4.90;;
10645;SDS011;5371;49.782;9.932;2024-02-21T00:35:13;12.83;;;4.17;;
10645;SDS011;5371;49.782;9.932;2024-02-21T00:37:40;9.73;;;3.70;;
10645;SDS011;5371;49.782;9.932;2024-02-21T00:40:07;17.27;;;4.40;;
10645;SDS011;5371;49.782;9.932;2024-02-21T00:42:34;12.30;;;4.00;;
10645;SDS011;5371;49.782;9.932;2024-02-21T00:45:04;11.80;;;3.90;;
10645;SDS011;5371;49.782;9.932;2024-02-21T00:47:32;10.77;;;4.30;;
10645;SDS011;5371;49.782;9.932;2024-02-21T00:49:59;12.33;;;4.10;;
10645;SDS011;5371;49.782;9.932;2024-02-21T00:52:26;10.43;;;4.00;;
10645;SDS011;5371;49.782;9.932;2024-02-21T00:54:53;13.37;;;3.93;;
10645;SDS011;5371;49.782;9.932;2024-02-21T00:57:20;18.03;;;4.10;;
10645;SDS011;5371;49.782;9.932;2024-02-21T00:59:53;16.13;;;4.53;;
10645;SDS011;5371;49.782;9.932;2024-02-21T01:02:21;11.83;;;4.17;;
10645;SDS011;5371;49.782;9.932;2024-02-21T01:04:48;13.80;;;4.30;;
10645;SDS011;5371;49.782;9.932;2024-02-21T01:07:15;14.93;;;4.27;;
10645;SDS011;5371;49.782;9.932;2024-02-21T01:09:42;10.50;;;3.87;;
10645;SDS011;5371;49.782;9.932;2024-02-21T01:12:09;11.30;;;3.87;;
10645;SDS011;5371;49.782;9.932;2024-02-21T01:14:36;16.53;;;4.50;;
10645;SDS011;5371;49.782;9.932;2024-02-21T01:17:03;13.90;;;4.30;;
10645;SDS011;5371;49.782;9.932;2024-02-21T01:19:32;12.20;;;3.93;;
10645;SDS011;5371;49.782;9.932;2024-02-21T01:21:59;15.40;;;4.40;;
10645;SDS011;5371;49.782;9.932;2024-02-21T01:24:26;16.43;;;4.97;;
10645;SDS011;5371;49.782;9.932;2024-02-21T01:26:53;7.93;;;3.97;;
10645;SDS011;5371;49.782;9.932;2024-02-21T01:29:20;12.67;;;4.37;;
10645;SDS011;5371;49.782;9.932;2024-02-21T01:31:47;13.50;;;4.00;;
10645;SDS011;5371;49.782;9.932;2024-02-21T01:34:14;13.40;;;4.77;;
10645;SDS011;5371;49.782;9.932;2024-02-21T01:36:42;12.90;;;4.23;;
10645;SDS011;5371;49.782;9.932;2024-02-21T01:39:12;11.10;;;4.00;;
10645;SDS011;5371;49.782;9.932;2024-02-21T01:41:39;13.07;;;3.93;;
10645;SDS011;5371;49.782;9.932;2024-02-21T01:44:06;10.87;;;4.50;;
10645;SDS011;5371;49.782;9.932;2024-02-21T01:46:33;12.80;;;4.30;;
10645;SDS011;5371;49.782;9.932;2024-02-21T01:49:01;13.97;;;4.43;;
10645;SDS011;5371;49.782;9.932;2024-02-21T01:51:28;12.60;;;4.10;;
10645;SDS011;5371;49.782;9.932;2024-02-21T01:53:56;11.97;;;4.27;;
10645;SDS011;5371;49.782;9.932;2024-02-21T01:56:24;13.73;;;4.53;;
10645;SDS011;5371;49.782;9.932;2024-02-21T01:58:51;16.20;;;4.73;;
10645;SDS011;5371;49.782;9.932;2024-02-21T02:01:18;15.47;;;4.80;;
10645;SDS011;5371;49.782;9.932;2024-02-21T02:03:45;18.67;;;4.97;;
10645;SDS011;5371;49.782;9.932;2024-02-21T02:06:12;15.57;;;5.00;;
10645;SDS011;5371;49.782;9.932;2024-02-21T02:08:40;15.97;;;5.20;;
10645;SDS011;5371;49.782;9.932;2024-02-21T02:11:08;15.17;;;4.70;;
10645;SDS011;5371;49.782;9.932;2024-02-21T02:13:35;14.20;;;5.23;;
10645;SDS011;5371;49.782;9.932;2024-02-21T02:16:02;10.80;;;4.40;;
10645;SDS011;5371;49.782;9.932;2024-02-21T02:18:30;18.60;;;5.07;;
10645;SDS011;5371;49.782;9.932;2024-02-21T02:20:57;16.50;;;4.93;;
10645;SDS011;5371;49.782;9.932;2024-02-21T02:23:25;12.87;;;5.53;;
10645;SDS011;5371;49.782;9.932;2024-02-21T02:25:53;12.17;;;4.70;;
10645;SDS011;5371;49.782;9.932;2024-02-21T02:28:20;14.20;;;4.70;;
10645;SDS011;5371;49.782;9.932;2024-02-21T02:30:47;15.43;;;4.97;;
10645;SDS011;5371;49.782;9.932;2024-02-21T02:33:14;13.50;;;5.17;;
10645;SDS011;5371;49.782;9.932;2024-02-21T02:35:43;15.37;;;5.87;;
10645;SDS011;5371;49.782;9.932;2024-02-21T02:38:10;12.97;;;4.83;;
10645;SDS011;5371;49.782;9.932;2024-02-21T02:40:39;14.97;;;5.37;;
10645;SDS011;5371;49.782;9.932;2024-02-21T02:43:06;15.23;;;6.00;;
10645;SDS011;5371;49.782;9.932;2024-02-21T02:45:33;17.80;;;5.83;;
10645;SDS011;5371;49.782;9.932;2024-02-21T02:48:00;16.90;;;5.23;;
10645;SDS011;5371;49.782;9.932;2024-02-21T02:50:27;16.10;;;5.77;;
10645;SDS011;5371;49.782;9.932;2024-02-21T02:52:54;13.67;;;5.37;;
10645;SDS011;5371;49.782;9.932;2024-02-21T02:55:22;16.20;;;5.43;;
10645;SDS011;5371;49.782;9.932;2024-02-21T02:57:50;15.63;;;5.07;;
10645;SDS011;5371;49.782;9.932;2024-02-21T03:00:17;16.63;;;4.87;;
10645;SDS011;5371;49.782;9.932;2024-02-21T03:02:45;14.10;;;5.10;;
10645;SDS011;5371;49.782;9.932;2024-02-21T03:05:13;13.77;;;5.03;;
10645;SDS011;5371;49.782;9.932;2024-02-21T03:07:41;17.77;;;5.93;;
10645;SDS011;5371;49.782;9.932;2024-02-21T03:10:08;12.57;;;5.17;;
10645;SDS011;5371;49.782;9.932;2024-02-21T03:12:35;9.63;;;4.63;;
10645;SDS011;5371;49.782;9.932;2024-02-21T03:15:05;16.03;;;5.40;;
10645;SDS011;5371;49.782;9.932;2024-02-21T03:17:32;15.00;;;5.10;;
10645;SDS011;5371;49.782;9.932;2024-02-21T03:20:00;16.43;;;5.07;;
10645;SDS011;5371;49.782;9.932;2024-02-21T03:22:30;15.43;;;5.00;;
10645;SDS011;5371;49.782;9.932;2024-02-21T03:24:58;17.67;;;5.60;;
10645;SDS011;5371;49.782;9.932;2024-02-21T03:27:25;13.00;;;4.57;;
10645;SDS011;5371;49.782;9.932;2024-02-21T03:29:52;15.83;;;4.90;;
10645;SDS011;5371;49.782;9.932;2024-02-21T03:32:20;17.80;;;5.40;;
10645;SDS011;5371;49.782;9.932;2024-02-21T03:34:47;16.37;;;5.00;;
10645;SDS011;5371;49.782;9.932;2024-02-21T03:37:14;13.60;;;4.93;;
10645;SDS011;5371;49.782;9.932;2024-02-21T03:39:41;14.90;;;5.17;;
10645;SDS011;5371;49.782;9.932;2024-02-21T03:42:08;10.87;;;4.97;;
10645;SDS011;5371;49.782;9.932;2024-02-21T03:44:35;15.83;;;4.57;;
10645;SDS011;5371;49.782;9.932;2024-02-21T03:47:02;14.73;;;5.50;;
10645;SDS011;5371;49.782;9.932;2024-02-21T03:49:30;12.13;;;4.80;;
10645;SDS011;5371;49.782;9.932;2024-02-21T03:51:57;15.30;;;5.20;;
10645;SDS011;5371;49.782;9.932;2024-02-21T03:54:24;18.37;;;5.70;;
10645;SDS011;5371;49.782;9.932;2024-02-21T03:56:51;13.50;;;5.10;;
10645;SDS011;5371;49.782;9.932;2024-02-21T03:59:18;14.80;;;5.30;;
10645;SDS011;5371;49.782;9.932;2024-02-21T04:01:45;14.50;;;5.17;;
10645;SDS011;5371;49.782;9.932;2024-02-21T04:04:12;14.83;;;5.20;;
10645;SDS011;5371;49.782;9.932;2024-02-21T04:06:47;11.93;;;5.30;;
10645;SDS011;5371;49.782;9.932;2024-02-21T04:09:14;19.83;;;5.27;;
10645;SDS011;5371;49.782;9.932;2024-02-21T04:11:40;15.97;;;5.67;;
10645;SDS011;5371;49.782;9.932;2024-02-21T04:14:08;16.80;;;5.63;;
10645;SDS011;5371;49.782;9.932;2024-02-21T04:16:36;10.47;;;4.73;;
10645;SDS011;5371;49.782;9.932;2024-02-21T04:19:04;13.63;;;5.73;;
10645;SDS011;5371;49.782;9.932;2024-02-21T04:21:31;18.67;;;5.47;;
10645;SDS011;5371;49.782;9.932;2024-02-21T04:23:59;18.67;;;5.70;;
10645;SDS011;5371;49.782;9.932;2024-02-21T04:26:27;17.53;;;5.70;;
10645;SDS011;5371;49.782;9.932;2024-02-21T04:28:54;17.30;;;5.87;;
10645;SDS011;5371;49.782;9.932;2024-02-21T04:31:21;14.80;;;5.43;;
10645;SDS011;5371;49.782;9.932;2024-02-21T04:33:48;21.27;;;6.17;;
10645;SDS011;5371;49.782;9.932;2024-02-21T04:36:15;13.53;;;5.53;;
10645;SDS011;5371;49.782;9.932;2024-02-21T04:38:42;16.80;;;5.73;;
10645;SDS011;5371;49.782;9.932;2024-02-21T04:41:10;14.60;;;5.77;;
10645;SDS011;5371;49.782;9.932;2024-02-21T04:43:37;18.10;;;6.23;;
10645;SDS011;5371;49.782;9.932;2024-02-21T04:46:04;14.97;;;6.27;;
10645;SDS011;5371;49.782;9.932;2024-02-21T04:48:31;17.47;;;5.97;;
10645;SDS011;5371;49.782;9.932;2024-02-21T04:50:58;16.00;;;5.90;;
10645;SDS011;5371;49.782;9.932;2024-02-21T04:53:25;17.67;;;6.37;;
10645;SDS011;5371;49.782;9.932;2024-02-21T04:55:52;15.83;;;6.33;;
10645;SDS011;5371;49.782;9.932;2024-02-21T04:58:20;14.53;;;5.67;;
10645;SDS011;5371;49.782;9.932;2024-02-21T05:00:47;17.67;;;5.67;;
10645;SDS011;5371;49.782;9.932;2024-02-21T05:03:14;18.57;;;6.27;;
10645;SDS011;5371;49.782;9.932;2024-02-21T05:05:42;12.33;;;5.87;;
10645;SDS011;5371;49.782;9.932;2024-02-21T05:08:09;18.67;;;7.03;;
10645;SDS011;5371;49.782;9.932;2024-02-21T05:10:37;22.93;;;9.93;;
10645;SDS011;5371;49.782;9.932;2024-02-21T05:13:04;15.20;;;6.53;;
10645;SDS011;5371;49.782;9.932;2024-02-21T05:15:32;15.60;;;6.53;;
10645;SDS011;5371;49.782;9.932;2024-02-21T05:17:59;18.43;;;7.30;;
10645;SDS011;5371;49.782;9.932;2024-02-21T05:20:26;20.20;;;7.43;;
10645;SDS011;5371;49.782;9.932;2024-02-21T05:22:53;13.07;;;6.57;;
10645;SDS011;5371;49.782;9.932;2024-02-21T05:25:23;17.97;;;6.43;;
10645;SDS011;5371;49.782;9.932;2024-02-21T05:27:50;19.17;;;6.77;;
10645;SDS011;5371;49.782;9.932;2024-02-21T05:30:19;16.67;;;6.50;;
10645;SDS011;5371;49.782;9.932;2024-02-21T05:32:47;18.77;;;6.83;;
10645;SDS011;5371;49.782;9.932;2024-02-21T05:35:14;15.07;;;6.60;;
10645;SDS011;5371;49.782;9.932;2024-02-21T05:37:41;16.63;;;7.03;;
10645;SDS011;5371;49.782;9.932;2024-02-21T05:40:08;15.70;;;6.77;;
10645;SDS011;5371;49.782;9.932;2024-02-21T05:42:38;14.83;;;6.97;;
10645;SDS011;5371;49.782;9.932;2024-02-21T05:45:05;19.77;;;7.53;;
10645;SDS011;5371;49.782;9.932;2024-02-21T05:47:32;15.33;;;6.97;;
10645;SDS011;5371;49.782;9.932;2024-02-21T05:50:01;19.00;;;7.77;;
10645;SDS011;5371;49.782;9.932;2024-02-21T05:52:28;22.00;;;7.37;;
10645;SDS011;5371;49.782;9.932;2024-02-21T05:54:55;18.67;;;8.80;;
10645;SDS011;5371;49.782;9.932;2024-02-21T05:57:22;17.93;;;7.70;;
10645;SDS011;5371;49.782;9.932;2024-02-21T05:59:49;17.33;;;7.97;;
10645;SDS011;5371;49.782;9.932;2024-02-21T06:02:15;17.70;;;7.87;;
10645;SDS011;5371;49.782;9.932;2024-02-21T06:04:42;24.53;;;8.53;;
10645;SDS011;5371;49.782;9.932;2024-02-21T06:07:11;19.10;;;7.90;;
10645;SDS011;5371;49.782;9.932;2024-02-21T06:09:38;18.47;;;8.33;;
10645;SDS011;5371;49.782;9.932;2024-02-21T06:12:05;23.63;;;8.80;;
10645;SDS011;5371;49.782;9.932;2024-02-21T06:14:32;21.07;;;8.53;;
10645;SDS011;5371;49.782;9.932;2024-02-21T06:16:59;19.57;;;7.97;;
10645;SDS011;5371;49.782;9.932;2024-02-21T06:19:26;18.93;;;7.97;;
10645;SDS011;5371;49.782;9.932;2024-02-21T06:21:53;16.77;;;8.23;;
10645;SDS011;5371;49.782;9.932;2024-02-21T06:24:21;17.93;;;8.47;;
10645;SDS011;5371;49.782;9.932;2024-02-21T06:26:48;21.07;;;8.17;;
10645;SDS011;5371;49.782;9.932;2024-02-21T06:29:15;15.73;;;8.57;;
10645;SDS011;5371;49.782;9.932;2024-02-21T06:31:42;19.97;;;8.50;;
10645;SDS011;5371;49.782;9.932;2024-02-21T06:34:09;18.40;;;8.73;;
10645;SDS011;5371;49.782;9.932;2024-02-21T06:36:36;19.17;;;8.00;;
10645;SDS011;5371;49.782;9.932;2024-02-21T06:39:03;19.50;;;8.63;;
10645;SDS011;5371;49.782;9.932;2024-02-21T06:41:34;17.40;;;8.40;;
10645;SDS011;5371;49.782;9.932;2024-02-21T06:44:01;20.73;;;9.30;;
10645;SDS011;5371;49.782;9.932;2024-02-21T06:46:28;15.57;;;7.70;;
10645;SDS011;5371;49.782;9.932;2024-02-21T06:48:56;19.27;;;8.60;;
10645;SDS011;5371;49.782;9.932;2024-02-21T06:51:23;16.60;;;7.80;;
10645;SDS011;5371;49.782;9.932;2024-02-21T06:53:50;18.17;;;8.27;;
10645;SDS011;5371;49.782;9.932;2024-02-21T06:56:17;14.83;;;8.20;;
10645;SDS011;5371;49.782;9.932;2024-02-21T06:58:45;17.27;;;8.37;;
10645;SDS011;5371;49.782;9.932;2024-02-21T07:01:12;16.70;;;8.50;;
10645;SDS011;5371;49.782;9.932;2024-02-21T07:03:39;19.97;;;8.87;;
10645;SDS011;5371;49.782;9.932;2024-02-21T07:06:06;20.30;;;8.00;;
10645;SDS011;5371;49.782;9.932;2024-02-21T07:08:33;12.90;;;7.77;;
10645;SDS011;5371;49.782;9.932;2024-02-21T07:11:00;18.77;;;7.70;;
10645;SDS011;5371;49.782;9.932;2024-02-21T07:13:27;18.07;;;8.10;;
10645;SDS011;5371;49.782;9.932;2024-02-21T07:15:55;14.90;;;7.30;;
10645;SDS011;5371;49.782;9.932;2024-02-21T07:18:22;22.80;;;7.80;;
10645;SDS011;5371;49.782;9.932;2024-02-21T07:20:50;19.13;;;7.93;;
10645;SDS011;5371;49.782;9.932;2024-02-21T07:23:17;20.80;;;8.53;;
10645;SDS011;5371;49.782;9.932;2024-02-21T07:25:44;15.37;;;7.80;;
10645;SDS011;5371;49.782;9.932;2024-02-21T07:28:11;16.47;;;7.63;;
10645;SDS011;5371;49.782;9.932;2024-02-21T07:30:39;15.53;;;7.50;;
10645;SDS011;5371;49.782;9.932;2024-02-21T07:33:08;22.13;;;7.77;;
10645;SDS011;5371;49.782;9.932;2024-02-21T07:35:35;17.50;;;6.93;;
10645;SDS011;5371;49.782;9.932;2024-02-21T07:38:03;19.13;;;7.03;;
10645;SDS011;5371;49.782;9.932;2024-02-21T07:40:30;16.80;;;7.20;;
10645;SDS011;5371;49.782;9.932;2024-02-21T07:42:57;16.67;;;6.57;;
10645;SDS011;5371;49.782;9.932;2024-02-21T07:45:24;19.37;;;7.53;;
10645;SDS011;5371;49.782;9.932;2024-02-21T07:47:52;15.20;;;6.77;;
10645;SDS011;5371;49.782;9.932;2024-02-21T07:50:20;18.83;;;6.70;;
10645;SDS011;5371;49.782;9.932;2024-02-21T07:52:47;11.80;;;6.00;;
10645;SDS011;5371;49.782;9.932;2024-02-21T07:55:14;11.93;;;5.87;;
10645;SDS011;5371;49.782;9.932;2024-02-21T07:57:41;19.07;;;6.20;;
10645;SDS011;5371;49.782;9.932;2024-02-21T08:00:08;15.67;;;5.60;;
10645;SDS011;5371;49.782;9.932;2024-02-21T08:02:40;15.10;;;5.13;;
10645;SDS011;5371;49.782;9.932;2024-02-21T08:05:09;10.73;;;5.33;;
10645;SDS011;5371;49.782;9.932;2024-02-21T08:07:39;16.67;;;5.53;;
10645;SDS011;5371;49.782;9.932;2024-02-21T08:10:06;14.23;;;5.70;;
10645;SDS011;5371;49.782;9.932;2024-02-21T08:12:34;15.73;;;5.20;;
10645;SDS011;5371;49.782;9.932;2024-02-21T08:15:01;13.00;;;5.10;;
10645;SDS011;5371;49.782;9.932;2024-02-21T08:17:30;13.37;;;5.10;;
10645;SDS011;5371;49.782;9.932;2024-02-21T08:19:57;12.67;;;4.73;;
10645;SDS011;5371;49.782;9.932;2024-02-21T08:22:24;13.73;;;5.20;;
10645;SDS011;5371;49.782;9.932;2024-02-21T08:24:52;12.90;;;5.17;;
10645;SDS011;5371;49.782;9.932;2024-02-21T08:27:19;14.82;;;4.90;;
10645;SDS011;5371;49.782;9.932;2024-02-21T08:29:46;9.32;;;4.80;;
10645;SDS011;5371;49.782;9.932;2024-02-21T08:32:13;13.98;;;4.65;;
10645;SDS011;5371;49.782;9.932;2024-02-21T08:34:40;10.75;;;4.10;;
10645;SDS011;5371;49.782;9.932;2024-02-21T08:37:07;10.98;;;4.50;;
10645;SDS011;5371;49.782;9.932;2024-02-21T08:39:36;13.68;;;4.60;;
10645;SDS011;5371;49.782;9.932;2024-02-21T08:42:04;11.60;;;4.70;;
10645;SDS011;5371;49.782;9.932;2024-02-21T08:44:31;11.75;;;4.18;;
10645;SDS011;5371;49.782;9.932;2024-02-21T08:46:58;13.50;;;4.22;;
10645;SDS011;5371;49.782;9.932;2024-02-21T08:49:27;13.00;;;4.43;;
10645;SDS011;5371;49.782;9.932;2024-02-21T08:51:54;11.70;;;4.25;;
10645;SDS011;5371;49.782;9.932;2024-02-21T08:54:21;8.23;;;3.80;;
10645;SDS011;5371;49.782;9.932;2024-02-21T08:56:48;12.60;;;4.00;;
10645;SDS011;5371;49.782;9.932;2024-02-21T08:59:16;14.27;;;4.60;;
10645;SDS011;5371;49.782;9.932;2024-02-21T09:01:43;11.98;;;4.45;;
10645;SDS011;5371;49.782;9.932;2024-02-21T09:04:10;10.07;;;3.60;;
10645;SDS011;5371;49.782;9.932;2024-02-21T09:06:37;9.52;;;3.92;;
10645;SDS011;5371;49.782;9.932;2024-02-21T09:09:07;8.98;;;4.00;;
10645;SDS011;5371;49.782;9.932;2024-02-21T09:11:35;8.48;;;3.67;;
10645;SDS011;5371;49.782;9.932;2024-02-21T09:14:02;8.38;;;3.58;;
10645;SDS011;5371;49.782;9.932;2024-02-21T09:16:31;11.73;;;4.15;;
10645;SDS011;5371;49.782;9.932;2024-02-21T09:18:58;10.25;;;3.88;;
10645;SDS011;5371;49.782;9.932;2024-02-21T09:21:25;11.13;;;4.32;;
10645;SDS011;5371;49.782;9.932;2024-02-21T09:23:53;8.70;;;3.90;;
10645;SDS011;5371;49.782;9.932;2024-02-21T09:26:20;13.00;;;4.78;;
10645;SDS011;5371;49.782;9.932;2024-02-21T09:28:47;12.45;;;3.92;;
10645;SDS011;5371;49.782;9.932;2024-02-21T09:31:14;10.63;;;3.85;;
10645;SDS011;5371;49.782;9.932;2024-02-21T09:33:42;10.20;;;4.03;;
10645;SDS011;5371;49.782;9.932;2024-02-21T09:36:09;10.45;;;3.83;;
10645;SDS011;5371;49.782;9.932;2024-02-21T09:38:36;11.40;;;4.15;;
10645;SDS011;5371;49.782;9.932;2024-02-21T09:41:06;13.45;;;3.78;;
10645;SDS011;5371;49.782;9.932;2024-02-21T09:43:38;9.45;;;3.80;;
10645;SDS011;5371;49.782;9.932;2024-02-21T09:46:06;10.20;;;4.07;;
10645;SDS011;5371;49.782;9.932;2024-02-21T09:48:40;14.97;;;3.80;;
10645;SDS011;5371;49.782;9.932;2024-02-21T09:51:12;9.43;;;3.53;;
10645;SDS011;5371;49.782;9.932;2024-02-21T09:53:40;11.07;;;4.10;;
10645;SDS011;5371;49.782;9.932;2024-02-21T09:56:08;9.00;;;3.58;;
10645;SDS011;5371;49.782;9.932;2024-02-21T09:58:35;11.15;;;4.40;;
10645;SDS011;5371;49.782;9.932;2024-02-21T10:01:02;11.10;;;3.65;;
10645;SDS011;5371;49.782;9.932;2024-02-21T10:03:32;9.43;;;3.88;;
10645;SDS011;5371;49.782;9.932;2024-02-21T10:06:03;10.50;;;3.58;;
10645;SDS011;5371;49.782;9.932;2024-02-21T10:08:30;8.77;;;3.45;;
10645;SDS011;5371;49.782;9.932;2024-02-21T10:10:57;12.35;;;3.80;;
10645;SDS011;5371;49.782;9.932;2024-02-21T10:13:26;9.00;;;3.28;;
10645;SDS011;5371;49.782;9.932;2024-02-21T10:16:03;13.35;;;4.60;;
10645;SDS011;5371;49.782;9.932;2024-02-21T10:18:31;11.38;;;3.58;;
10645;SDS011;5371;49.782;9.932;2024-02-21T10:21:03;7.88;;;3.35;;
10645;SDS011;5371;49.782;9.932;2024-02-21T10:26:17;10.48;;;3.38;;
10645;SDS011;5371;49.782;9.932;2024-02-21T10:28:44;13.02;;;3.40;;
10645;SDS011;5371;49.782;9.932;2024-02-21T10:31:20;9.75;;;3.13;;
10645;SDS011;5371;49.782;9.932;2024-02-21T10:33:53;11.00;;;3.53;;
10645;SDS011;5371;49.782;9.932;2024-02-21T10:36:22;10.35;;;3.00;;
10645;SDS011;5371;49.782;9.932;2024-02-21T10:38:50;9.52;;;3.10;;
10645;SDS011;5371;49.782;9.932;2024-02-21T10:41:18;12.32;;;3.33;;
10645;SDS011;5371;49.782;9.932;2024-02-21T10:43:46;7.75;;;2.92;;
10645;SDS011;5371;49.782;9.932;2024-02-21T10:46:18;8.93;;;2.60;;
10645;SDS011;5371;49.782;9.932;2024-02-21T10:48:46;7.68;;;3.08;;
10645;SDS011;5371;49.782;9.932;2024-02-21T10:51:16;12.80;;;3.53;;
10645;SDS011;5371;49.782;9.932;2024-02-21T10:53:47;8.82;;;3.28;;
10645;SDS011;5371;49.782;9.932;2024-02-21T10:56:26;7.82;;;2.63;;
10645;SDS011;5371;49.782;9.932;2024-02-21T10:58:55;9.55;;;2.88;;
10645;SDS011;5371;49.782;9.932;2024-02-21T11:01:24;9.82;;;3.50;;
10645;SDS011;5371;49.782;9.932;2024-02-21T11:03:53;13.85;;;3.42;;
10645;SDS011;5371;49.782;9.932;2024-02-21T11:06:20;8.00;;;3.20;;
10645;SDS011;5371;49.782;9.932;2024-02-21T11:08:49;9.32;;;2.75;;
10645;SDS011;5371;49.782;9.932;2024-02-21T11:11:26;9.35;;;2.85;;
10645;SDS011;5371;49.782;9.932;2024-02-21T11:13:53;10.35;;;3.10;;
10645;SDS011;5371;49.782;9.932;2024-02-21T11:16:34;6.68;;;2.58;;
10645;SDS011;5371;49.782;9.932;2024-02-21T11:19:06;8.73;;;2.78;;
10645;SDS011;5371;49.782;9.932;2024-02-21T11:21:34;8.25;;;2.67;;
10645;SDS011;5371;49.782;9.932;2024-02-21T11:24:03;7.80;;;2.85;;
10645;SDS011;5371;49.782;9.932;2024-02-21T11:26:30;12.05;;;3.03;;
10645;SDS011;5371;49.782;9.932;2024-02-21T11:28:58;8.98;;;2.90;;
10645;SDS011;5371;49.782;9.932;2024-02-21T11:31:26;7.00;;;2.80;;
10645;SDS011;5371;49.782;9.932;2024-02-21T11:33:53;8.25;;;3.05;;
10645;SDS011;5371;49.782;9.932;2024-02-21T11:36:24;7.68;;;2.70;;
10645;SDS011;5371;49.782;9.932;2024-02-21T11:38:52;9.68;;;3.13;;
10645;SDS011;5371;49.782;9.932;2024-02-21T11:41:21;5.32;;;2.22;;
10645;SDS011;5371;49.782;9.932;2024-02-21T11:43:48;8.88;;;3.15;;
10645;SDS011;5371;49.782;9.932;2024-02-21T11:46:16;9.27;;;2.80;;
10645;SDS011;5371;49.782;9.932;2024-02-21T11:48:43;8.23;;;2.78;;
10645;SDS011;5371;49.782;9.932;2024-02-21T11:51:20;8.82;;;2.83;;
10645;SDS011;5371;49.782;9.932;2024-02-21T11:53:48;7.25;;;2.70;;
10645;SDS011;5371;49.782;9.932;2024-02-21T11:56:15;8.73;;;2.53;;
10645;SDS011;5371;49.782;9.932;2024-02-21T11:58:43;9.13;;;2.90;;
10645;SDS011;5371;49.782;9.932;2024-02-21T12:01:10;6.88;;;2.70;;
10645;SDS011;5371;49.782;9.932;2024-02-21T12:03:37;8.25;;;2.65;;
10645;SDS011;5371;49.782;9.932;2024-02-21T12:06:06;11.30;;;2.80;;
10645;SDS011;5371;49.782;9.932;2024-02-21T12:08:40;10.85;;;3.03;;
10645;SDS011;5371;49.782;9.932;2024-02-21T12:11:15;5.53;;;2.58;;
10645;SDS011;5371;49.782;9.932;2024-02-21T12:13:45;8.45;;;2.50;;
10645;SDS011;5371;49.782;9.932;2024-02-21T12:16:15;8.63;;;2.60;;
10645;SDS011;5371;49.782;9.932;2024-02-21T12:18:44;8.77;;;2.78;;
10645;SDS011;5371;49.782;9.932;2024-02-21T12:21:11;7.15;;;2.45;;
10645;SDS011;5371;49.782;9.932;2024-02-21T12:23:39;9.00;;;2.30;;
10645;SDS011;5371;49.782;9.932;2024-02-21T12:26:06;5.70;;;2.35;;
10645;SDS011;5371;49.782;9.932;2024-02-21T12:28:33;5.53;;;2.30;;
10645;SDS011;5371;49.782;9.932;2024-02-21T12:31:02;8.57;;;2.50;;
10645;SDS011;5371;49.782;9.932;2024-02-21T12:33:29;6.53;;;2.70;;
10645;SDS011;5371;49.782;9.932;2024-02-21T12:35:58;8.45;;;2.80;;
10645;SDS011;5371;49.782;9.932;2024-02-21T12:38:25;7.18;;;2.38;;
10645;SDS011;5371;49.782;9.932;2024-02-21T12:40:52;7.50;;;2.58;;
10645;SDS011;5371;49.782;9.932;2024-02-21T12:43:19;6.05;;;2.35;;
10645;SDS011;5371;49.782;9.932;2024-02-21T12:45:47;7.57;;;2.95;;
10645;SDS011;5371;49.782;9.932;2024-02-21T12:48:16;9.63;;;2.60;;
10645;SDS011;5371;49.782;9.932;2024-02-21T12:50:47;6.53;;;2.70;;
10645;SDS011;5371;49.782;9.932;2024-02-21T12:53:15;5.15;;;2.20;;
10645;SDS011;5371;49.782;9.932;2024-02-21T12:55:44;6.50;;;2.47;;
10645;SDS011;5371;49.782;9.932;2024-02-21T12:58:12;8.88;;;2.50;;
10645;SDS011;5371;49.782;9.932;2024-02-21T13:00:40;6.47;;;2.35;;
10645;SDS011;5371;49.782;9.932;2024-02-21T13:03:07;6.45;;;1.90;;
10645;SDS011;5371;49.782;9.932;2024-02-21T13:05:36;7.28;;;2.38;;
10645;SDS011;5371;49.782;9.932;2024-02-21T13:08:04;6.03;;;2.38;;
10645;SDS011;5371;49.782;9.932;2024-02-21T13:10:31;8.35;;;2.17;;
10645;SDS011;5371;49.782;9.932;2024-02-21T13:12:59;7.40;;;2.55;;
10645;SDS011;5371;49.782;9.932;2024-02-21T13:15:27;5.25;;;2.40;;
10645;SDS011;5371;49.782;9.932;2024-02-21T13:17:55;9.88;;;2.60;;
10645;SDS011;5371;49.782;9.932;2024-02-21T13:20:22;8.88;;;2.25;;
10645;SDS011;5371;49.782;9.932;2024-02-21T13:22:50;5.53;;;2.17;;
10645;SDS011;5371;49.782;9.932;2024-02-21T13:25:17;7.00;;;2.20;;
10645;SDS011;5371;49.782;9.932;2024-02-21T13:27:46;5.65;;;2.17;;
10645;SDS011;5371;49.782;9.932;2024-02-21T13:30:14;7.18;;;2.75;;
10645;SDS011;5371;49.782;9.932;2024-02-21T13:32:43;6.28;;;2.05;;
10645;SDS011;5371;49.782;9.932;2024-02-21T13:35:14;8.90;;;2.33;;
10645;SDS011;5371;49.782;9.932;2024-02-21T13:37:41;5.68;;;2.10;;
10645;SDS011;5371;49.782;9.932;2024-02-21T13:40:10;9.07;;;2.33;;
10645;SDS011;5371;49.782;9.932;2024-02-21T13:42:39;7.78;;;2.33;;
10645;SDS011;5371;49.782;9.932;2024-02-21T13:45:06;7.13;;;2.13;;
10645;SDS011;5371;49.782;9.932;2024-02-21T13:47:34;6.03;;;2.13;;
10645;SDS011;5371;49.782;9.932;2024-02-21T13:50:04;5.30;;;2.08;;
10645;SDS011;5371;49.782;9.932;2024-02-21T13:52:34;5.78;;;2.20;;
10645;SDS011;5371;49.782;9.932;2024-02-21T13:55:01;5.60;;;1.92;;
10645;SDS011;5371;49.782;9.932;2024-02-21T13:57:30;6.07;;;2.20;;
10645;SDS011;5371;49.782;9.932;2024-02-21T13:59:57;5.68;;;2.20;;
10645;SDS011;5371;49.782;9.932;2024-02-21T14:02:24;7.63;;;2.42;;
10645;SDS011;5371;49.782;9.932;2024-02-21T14:04:51;7.72;;;2.38;;
10645;SDS011;5371;49.782;9.932;2024-02-21T14:07:18;7.43;;;2.15;;
10645;SDS011;5371;49.782;9.932;2024-02-21T14:09:45;7.43;;;2.35;;
10645;SDS011;5371;49.782;9.932;2024-02-21T14:12:14;6.75;;;2.53;;
10645;SDS011;5371;49.782;9.932;2024-02-21T14:14:44;4.75;;;1.92;;
10645;SDS011;5371;49.782;9.932;2024-02-21T14:17:11;7.38;;;2.45;;
10645;SDS011;5371;49.782;9.932;2024-02-21T14:19:38;5.32;;;2.17;;
10645;SDS011;5371;49.782;9.932;2024-02-21T14:22:05;8.82;;;1.92;;
10645;SDS011;5371;49.782;9.932;2024-02-21T14:24:32;6.80;;;2.17;;
10645;SDS011;5371;49.782;9.932;2024-02-21T14:27:01;6.63;;;2.13;;
10645;SDS011;5371;49.782;9.932;2024-02-21T14:29:28;9.43;;;2.40;;
10645;SDS011;5371;49.782;9.932;2024-02-21T14:31:57;9.05;;;2.38;;
10645;SDS011;5371;49.782;9.932;2024-02-21T14:34:24;6.80;;;1.88;;
10645;SDS011;5371;49.782;9.932;2024-02-21T14:36:51;6.55;;;1.75;;
10645;SDS011;5371;49.782;9.932;2024-02-21T14:39:18;9.60;;;1.80;;
10645;SDS011;5371;49.782;9.932;2024-02-21T14:41:45;5.15;;;2.05;;
10645;SDS011;5371;49.782;9.932;2024-02-21T14:44:12;6.88;;;2.47;;
10645;SDS011;5371;49.782;9.932;2024-02-21T14:46:39;4.32;;;1.77;;
10645;SDS011;5371;49.782;9.932;2024-02-21T14:49:08;8.25;;;2.00;;
10645;SDS011;5371;49.782;9.932;2024-02-21T14:51:35;5.55;;;1.92;;
10645;SDS011;5371;49.782;9.932;2024-02-21T14:54:02;8.07;;;2.28;;
10645;SDS011;5371;49.782;9.932;2024-02-21T14:56:29;5.40;;;2.00;;
10645;SDS011;5371;49.782;9.932;2024-02-21T14:58:56;4.97;;;2.28;;